Flight Track Log - Related Links

Times and Time Zones

All times are in EDT time to prevent confusion due to time zone crossing. See the N53398 flight status page for this flight to view local times or setup timezone preferences in your user account.

Time Position Orientation Groundspeed Altitude Reporting Facility
EDT Latitude Longitude Course Direction KTS MPH feet Rate Location/Type
Fri 04:03:03 PM 37.8786 -90.2728 345° North 87 100 2,900  Level Kansas City Center
Fri 04:04:05 PM 37.9036 -90.2717 North 75 86 3,300 387 Climbing Kansas City Center
Fri 04:05:07 PM 37.9233 -90.2667 11° North 73 84 3,700 339 Climbing Kansas City Center
Fri 04:06:09 PM 37.9403 -90.2625 11° North 63 72 4,000 339 Climbing Kansas City Center
Fri 04:07:00 PM 37.7297 -90.2333 North  Level FlightAware Approximate
Fri 04:07:11 PM 37.9578 -90.2561 16° North 65 75 4,400  Level Kansas City Center
Fri 04:08:00 PM 37.7525 -90.2397 345° North  Level FlightAware Approximate
Fri 04:08:13 PM 37.9775 -90.2486 17° North 74 85 4,700  Level Kansas City Center
Fri 04:09:15 PM 38.0011 -90.2456 North 86 99 4,800 48 Climbing Kansas City Center
Fri 04:10:17 PM 38.0300 -90.2389 10° North 88 101 4,800  Level Kansas City Center
Fri 04:11:19 PM 38.0536 -90.2319 13° North 88 101 4,800  Level Kansas City Center
Fri 04:12:21 PM 38.0769 -90.2233 16° North 88 101 4,800  Level Kansas City Center
Fri 04:13:24 PM 38.1011 -90.2167 12° North 89 102 4,800  Level Kansas City Center
Fri 04:14:25 PM 38.1256 -90.2161 North 89 102 4,800 49 Level Kansas City Center
Fri 04:15:27 PM 38.1511 -90.2142 North 90 104 4,900 48 Climbing Kansas City Center
Fri 04:16:29 PM 38.1806 -90.2075 10° North 90 104 4,900  Level Kansas City Center
Fri 04:17:31 PM 38.2044 -90.1994 15° North 89 102 4,900 -290 Level Kansas City Center
Fri 04:18:33 PM 38.2169 -90.2094 328° Northwest 94 108 4,300 -97 Descending Kansas City Center
Fri 04:19:35 PM 38.1983 -90.2233 210° Southwest 84 97 4,700 290 Climbing Kansas City Center
Fri 04:20:37 PM 38.1764 -90.2294 192° South 82 94 4,900 97 Climbing Kansas City Center
Fri 04:21:39 PM 38.1667 -90.2311 188° South 103 119 4,900 -97 Level Kansas City Center
Fri 04:22:41 PM 38.1836 -90.2106 44° Northeast 90 104 4,700 -435 Descending Kansas City Center
Fri 04:23:43 PM 38.2011 -90.1861 48° Northeast 93 107 4,000 -387 Descending Kansas City Center
Fri 04:24:45 PM 38.2192 -90.1692 36° Northeast 89 102 3,900 -97 Descending Kansas City Center
Fri 04:25:47 PM 38.2433 -90.1683 North 87 100 3,800 -48 Descending Kansas City Center
Fri 04:26:49 PM 38.2658 -90.1625 12° North 85 98 3,800 48 Level Kansas City Center
Fri 04:27:51 PM 38.2939 -90.1547 12° North 85 98 3,900 -48 Climbing Kansas City Center
Fri 04:28:54 PM 38.3197 -90.1556 359° North 90 104 3,700 -336 Descending Kansas City Center
Fri 04:29:56 PM 38.3447 -90.1575 357° North 90 104 3,200 -532 Descending Kansas City Center
Fri 04:30:58 PM 38.3706 -90.1597 356° North 92 106 2,600 -484 Descending Kansas City Center
Fri 04:32:00 PM 38.3942 -90.1561 North 89 102 2,200 -242 Descending Kansas City Center
Fri 04:33:02 PM 38.4178 -90.1547 North 87 100 2,100 -48 Descending Kansas City Center
Fri 04:34:04 PM 38.4469 -90.1556 359° North 87 100 2,100 -97 Level Kansas City Center
Fri 04:35:06 PM 38.4689 -90.1433 24° Northeast 95 109 1,900 -145 Descending Kansas City Center
Fri 04:36:08 PM 38.4897 -90.1250 35° Northeast 93 107 1,800 -194 Descending Kansas City Center
Fri 04:37:10 PM 38.5128 -90.1117 24° Northeast 93 107 1,500 -290 Descending Kansas City Center
Fri 04:38:12 PM 38.5361 -90.1122 359° North 89 102 1,200 -435 Descending Kansas City Center
Fri 04:39:14 PM 38.5522 -90.1267 325° Northwest 74 85 600 -339 Descending Kansas City Center
Fri 04:40:16 PM 38.5611 -90.1386 314° West 66 76 500 -97 Descending Kansas City Center

Login

Don't have an account? Register now (free) for customized features, flight alerts, and more!